PWSweather.com
Personal Weather Stations
Station Observations
LOBIOS
Galicia, LobiosES

GaliciaLobiosES

Lat: 41.895, Lon: -8.091667

Elevation: 1597

Station Type: Automática/Davis Vantage Pro2 Plus

www.meteolobios.es

High Low Average
Temperature 53.7°F12.1°C 39.7°F4.3°C 47.0°F8.3°C
Dew Point 48.1°F8.9°C 36.7°F2.6°C 42.8°F6.0°C
Winds 12.7 mph 20.4 kmh Calm Calm 3.0 mph NE4.8 kmh NE
Wind Gusts 18.4 mph29.6 kmh -- 5.0 mph8.0 kmh
Humidity 95% 71% 86%
Pressure 30.45 in1031.2 mb 30.29 in1025.7 mb -
Precipitation 0.00 in0.0 mm - -
Hour Temp Dew Point Humidity Winds Wind Gusts Pressure Precip Precip Rate Daily Precip Total
12:00 AM 46.1°F7.8°C 43.3°F6.3°C 90% Calm Calm -- 30.33 in1027.1 mb - 0.00 in0.0 mm 0.00 in0.0 mm
12:10 AM 46.1°F7.8°C 43.3°F6.3°C 90% Calm Calm 2.3 mph3.7 kmh 30.33 in1027.1 mb - 0.00 in0.0 mm 0.00 in0.0 mm
12:20 AM 46.0°F7.8°C 43.3°F6.3°C 90% 1.1 mph NE1.8 kmh NE 1.1 mph1.8 kmh 30.32 in1026.8 mb - 0.00 in0.0 mm 0.00 in0.0 mm
12:30 AM 46.0°F7.8°C 43.2°F6.2°C 90% 1.1 mph NE1.8 kmh NE 3.5 mph5.6 kmh 30.32 in1026.8 mb - 0.00 in0.0 mm 0.00 in0.0 mm
12:40 AM 46.1°F7.8°C 43.3°F6.3°C 90% 2.3 mph N3.7 kmh N 3.5 mph5.6 kmh 30.32 in1026.8 mb - 0.00 in0.0 mm 0.00 in0.0 mm
12:50 AM 46.1°F7.8°C 43.3°F6.3°C 90% 1.1 mph N1.8 kmh N 2.3 mph3.7 kmh 30.32 in1026.8 mb - 0.00 in0.0 mm 0.00 in0.0 mm
01:00 AM 46.0°F7.8°C 43.2°F6.2°C 90% 2.3 mph N3.7 kmh N 4.6 mph7.4 kmh 30.32 in1026.8 mb - 0.00 in0.0 mm 0.00 in0.0 mm
01:10 AM 46.1°F7.8°C 43.3°F6.3°C 90% 1.1 mph NE1.8 kmh NE 3.5 mph5.6 kmh 30.32 in1026.8 mb - 0.00 in0.0 mm 0.00 in0.0 mm
01:20 AM 46.1°F7.8°C 43.3°F6.3°C 90% 3.5 mph NE5.6 kmh NE 3.5 mph5.6 kmh 30.32 in1026.8 mb - 0.00 in0.0 mm 0.00 in0.0 mm
01:30 AM 46.1°F7.8°C 43.3°F6.3°C 90% 3.5 mph NE5.6 kmh NE 4.6 mph7.4 kmh 30.32 in1026.8 mb - 0.00 in0.0 mm 0.00 in0.0 mm
01:40 AM 46.1°F7.8°C 43.6°F6.4°C 91% 4.6 mph ENE7.4 kmh ENE 8.1 mph13.0 kmh 30.32 in1026.8 mb - 0.00 in0.0 mm 0.00 in0.0 mm
01:50 AM 46.0°F7.8°C 43.5°F6.4°C 91% 4.6 mph NE7.4 kmh NE 6.9 mph11.1 kmh 30.31 in1026.4 mb - 0.00 in0.0 mm 0.00 in0.0 mm
02:00 AM 46.1°F7.8°C 43.6°F6.4°C 91% 2.3 mph NE3.7 kmh NE 3.5 mph5.6 kmh 30.30 in1026.1 mb - 0.00 in0.0 mm 0.00 in0.0 mm
02:10 AM 46.3°F7.9°C 43.8°F6.6°C 91% 4.6 mph NE7.4 kmh NE 5.8 mph9.3 kmh 30.30 in1026.1 mb - 0.00 in0.0 mm 0.00 in0.0 mm
02:20 AM 46.5°F8.1°C 44.0°F6.7°C 91% 3.5 mph NNE5.6 kmh NNE 4.6 mph7.4 kmh 30.30 in1026.1 mb - 0.00 in0.0 mm 0.00 in0.0 mm
02:30 AM 46.5°F8.1°C 44.0°F6.7°C 91% 5.8 mph NE9.3 kmh NE 5.8 mph9.3 kmh 30.30 in1026.1 mb - 0.00 in0.0 mm 0.00 in0.0 mm
02:40 AM 46.5°F8.1°C 44.0°F6.7°C 91% 3.5 mph NE5.6 kmh NE 4.6 mph7.4 kmh 30.30 in1026.1 mb - 0.00 in0.0 mm 0.00 in0.0 mm
02:50 AM 46.4°F8.0°C 43.9°F6.6°C 91% 2.3 mph NE3.7 kmh NE 2.3 mph3.7 kmh 30.30 in1026.1 mb - 0.00 in0.0 mm 0.00 in0.0 mm
03:00 AM 46.4°F8.0°C 43.9°F6.6°C 91% 4.6 mph ENE7.4 kmh ENE 4.6 mph7.4 kmh 30.30 in1026.1 mb - 0.00 in0.0 mm 0.00 in0.0 mm
03:10 AM 46.5°F8.1°C 44.0°F6.7°C 91% 6.9 mph ENE11.1 kmh ENE 8.1 mph13.0 kmh 30.30 in1026.1 mb - 0.00 in0.0 mm 0.00 in0.0 mm
03:20 AM 46.5°F8.1°C 44.0°F6.7°C 91% 4.6 mph ENE7.4 kmh ENE 4.6 mph7.4 kmh 30.30 in1026.1 mb - 0.00 in0.0 mm 0.00 in0.0 mm
03:30 AM 46.4°F8.0°C 43.9°F6.6°C 91% 5.8 mph NE9.3 kmh NE 6.9 mph11.1 kmh 30.31 in1026.4 mb - 0.00 in0.0 mm 0.00 in0.0 mm
03:40 AM 46.3°F7.9°C 43.8°F6.6°C 91% 3.5 mph NE5.6 kmh NE 6.9 mph11.1 kmh 30.31 in1026.4 mb - 0.00 in0.0 mm 0.00 in0.0 mm
03:50 AM 46.4°F8.0°C 43.9°F6.6°C 91% 4.6 mph NE7.4 kmh NE 5.8 mph9.3 kmh 30.31 in1026.4 mb - 0.00 in0.0 mm 0.00 in0.0 mm
04:00 AM 46.4°F8.0°C 43.9°F6.6°C 91% 3.5 mph NE5.6 kmh NE 3.5 mph5.6 kmh 30.32 in1026.8 mb - 0.00 in0.0 mm 0.00 in0.0 mm
04:10 AM 46.2°F7.9°C 43.8°F6.6°C 91% 1.1 mph NE1.8 kmh NE 2.3 mph3.7 kmh 30.31 in1026.4 mb - 0.00 in0.0 mm 0.00 in0.0 mm
04:20 AM 46.1°F7.8°C 43.6°F6.4°C 91% Calm Calm 1.1 mph1.8 kmh 30.31 in1026.4 mb - 0.00 in0.0 mm 0.00 in0.0 mm
04:30 AM 45.9°F7.7°C 43.4°F6.3°C 91% 1.1 mph NE1.8 kmh NE 2.3 mph3.7 kmh 30.31 in1026.4 mb - 0.00 in0.0 mm 0.00 in0.0 mm
04:40 AM 45.7°F7.6°C 43.2°F6.2°C 91% 1.1 mph NE1.8 kmh NE 1.1 mph1.8 kmh 30.31 in1026.4 mb - 0.00 in0.0 mm 0.00 in0.0 mm
04:50 AM 45.4°F7.4°C 42.9°F6.1°C 91% Calm Calm -- 30.31 in1026.4 mb - 0.00 in0.0 mm 0.00 in0.0 mm
05:00 AM 45.2°F7.3°C 42.7°F5.9°C 91% Calm Calm -- 30.31 in1026.4 mb - 0.00 in0.0 mm 0.00 in0.0 mm
05:10 AM 44.8°F7.1°C 42.3°F5.7°C 91% Calm Calm -- 30.31 in1026.4 mb - 0.00 in0.0 mm 0.00 in0.0 mm
05:20 AM 44.6°F7.0°C 42.1°F5.6°C 91% Calm Calm 2.3 mph3.7 kmh 30.30 in1026.1 mb - 0.00 in0.0 mm 0.00 in0.0 mm
05:30 AM 44.5°F6.9°C 42.3°F5.7°C 92% 1.1 mph NE1.8 kmh NE 3.5 mph5.6 kmh 30.31 in1026.4 mb - 0.00 in0.0 mm 0.00 in0.0 mm
05:40 AM 44.4°F6.9°C 42.2°F5.7°C 92% 3.5 mph NE5.6 kmh NE 3.5 mph5.6 kmh 30.31 in1026.4 mb - 0.00 in0.0 mm 0.00 in0.0 mm
05:50 AM 44.4°F6.9°C 42.2°F5.7°C 92% 1.1 mph NE1.8 kmh NE 2.3 mph3.7 kmh 30.30 in1026.1 mb - 0.00 in0.0 mm 0.00 in0.0 mm
06:00 AM 44.3°F6.8°C 42.1°F5.6°C 92% 1.1 mph NE1.8 kmh NE 1.1 mph1.8 kmh 30.30 in1026.1 mb - 0.00 in0.0 mm 0.00 in0.0 mm
06:10 AM 44.2°F6.8°C 42.0°F5.6°C 92% 1.1 mph NE1.8 kmh NE 3.5 mph5.6 kmh 30.30 in1026.1 mb - 0.00 in0.0 mm 0.00 in0.0 mm
06:20 AM 43.9°F6.6°C 42.0°F5.6°C 93% Calm Calm 2.3 mph3.7 kmh 30.30 in1026.1 mb - 0.00 in0.0 mm 0.00 in0.0 mm
06:30 AM 44.1°F6.7°C 42.2°F5.7°C 93% Calm Calm -- 30.30 in1026.1 mb - 0.00 in0.0 mm 0.00 in0.0 mm
06:40 AM 44.3°F6.8°C 42.4°F5.8°C 93% Calm Calm -- 30.29 in1025.7 mb - 0.00 in0.0 mm 0.00 in0.0 mm
06:50 AM 44.4°F6.9°C 42.5°F5.8°C 93% Calm Calm 2.3 mph3.7 kmh 30.29 in1025.7 mb - 0.00 in0.0 mm 0.00 in0.0 mm
07:00 AM 44.3°F6.8°C 42.4°F5.8°C 93% 3.5 mph NE5.6 kmh NE 3.5 mph5.6 kmh 30.30 in1026.1 mb - 0.00 in0.0 mm 0.00 in0.0 mm
07:10 AM 44.4°F6.9°C 42.5°F5.8°C 93% Calm Calm 1.1 mph1.8 kmh 30.30 in1026.1 mb - 0.00 in0.0 mm 0.00 in0.0 mm
07:20 AM 44.2°F6.8°C 42.3°F5.7°C 93% Calm Calm -- 30.31 in1026.4 mb - 0.00 in0.0 mm 0.00 in0.0 mm
07:30 AM 44.1°F6.7°C 42.5°F5.8°C 94% Calm Calm -- 30.32 in1026.8 mb - 0.00 in0.0 mm 0.00 in0.0 mm
07:50 AM 44.4°F6.9°C 42.8°F6.0°C 94% Calm Calm -- 30.31 in1026.4 mb - 0.00 in0.0 mm 0.00 in0.0 mm
08:00 AM 44.5°F6.9°C 42.9°F6.1°C 94% 1.1 mph NE1.8 kmh NE 1.1 mph1.8 kmh 30.30 in1026.1 mb - 0.00 in0.0 mm 0.00 in0.0 mm
08:10 AM 44.3°F6.8°C 42.7°F5.9°C 94% 3.5 mph NNW5.6 kmh NNW 4.6 mph7.4 kmh 30.30 in1026.1 mb - 0.00 in0.0 mm 0.00 in0.0 mm
08:20 AM 44.2°F6.8°C 42.6°F5.9°C 94% Calm Calm 1.1 mph1.8 kmh 30.31 in1026.4 mb - 0.00 in0.0 mm 0.00 in0.0 mm
08:30 AM 44.0°F6.7°C 42.4°F5.8°C 94% Calm Calm -- 30.32 in1026.8 mb - 0.00 in0.0 mm 0.00 in0.0 mm
08:40 AM 43.8°F6.6°C 42.2°F5.7°C 94% 1.1 mph NE1.8 kmh NE 2.3 mph3.7 kmh 30.32 in1026.8 mb - 0.00 in0.0 mm 0.00 in0.0 mm
08:50 AM 43.7°F6.5°C 42.1°F5.6°C 94% 3.5 mph NE5.6 kmh NE 4.6 mph7.4 kmh 30.32 in1026.8 mb - 0.00 in0.0 mm 0.00 in0.0 mm
09:00 AM 43.8°F6.6°C 42.2°F5.7°C 94% Calm Calm -- 30.32 in1026.8 mb - 0.00 in0.0 mm 0.00 in0.0 mm
09:10 AM 44.0°F6.7°C 42.4°F5.8°C 94% Calm Calm -- 30.33 in1027.1 mb - 0.00 in0.0 mm 0.00 in0.0 mm
09:20 AM 44.0°F6.7°C 42.4°F5.8°C 94% Calm Calm -- 30.34 in1027.4 mb - 0.00 in0.0 mm 0.00 in0.0 mm
09:30 AM 44.1°F6.7°C 42.5°F5.8°C 94% Calm Calm -- 30.34 in1027.4 mb - 0.00 in0.0 mm 0.00 in0.0 mm
09:40 AM 44.1°F6.7°C 42.5°F5.8°C 94% Calm Calm -- 30.34 in1027.4 mb - 0.00 in0.0 mm 0.00 in0.0 mm
09:50 AM 44.3°F6.8°C 42.9°F6.1°C 95% Calm Calm -- 30.34 in1027.4 mb - 0.00 in0.0 mm 0.00 in0.0 mm
10:00 AM 44.4°F6.9°C 43.1°F6.2°C 95% Calm Calm -- 30.34 in1027.4 mb - 0.00 in0.0 mm 0.00 in0.0 mm
10:10 AM 44.6°F7.0°C 43.3°F6.3°C 95% Calm Calm -- 30.34 in1027.4 mb - 0.00 in0.0 mm 0.00 in0.0 mm
10:20 AM 45.1°F7.3°C 43.8°F6.6°C 95% Calm Calm -- 30.34 in1027.4 mb - 0.00 in0.0 mm 0.00 in0.0 mm
10:30 AM 45.3°F7.4°C 44.0°F6.7°C 95% Calm Calm -- 30.34 in1027.4 mb - 0.00 in0.0 mm 0.00 in0.0 mm
10:40 AM 45.3°F7.4°C 44.0°F6.7°C 95% Calm Calm -- 30.34 in1027.4 mb - 0.00 in0.0 mm 0.00 in0.0 mm
10:50 AM 45.3°F7.4°C 44.0°F6.7°C 95% 2.3 mph NE3.7 kmh NE 3.5 mph5.6 kmh 30.35 in1027.8 mb - 0.00 in0.0 mm 0.00 in0.0 mm
11:00 AM 45.4°F7.4°C 44.1°F6.7°C 95% 1.1 mph NE1.8 kmh NE 2.3 mph3.7 kmh 30.35 in1027.8 mb - 0.00 in0.0 mm 0.00 in0.0 mm
11:10 AM 45.4°F7.4°C 43.8°F6.6°C 94% Calm Calm -- 30.36 in1028.1 mb - 0.00 in0.0 mm 0.00 in0.0 mm
11:20 AM 45.6°F7.6°C 44.3°F6.8°C 95% 1.1 mph NE1.8 kmh NE 1.1 mph1.8 kmh 30.36 in1028.1 mb - 0.00 in0.0 mm 0.00 in0.0 mm
11:30 AM 45.8°F7.7°C 44.4°F6.9°C 95% Calm Calm -- 30.35 in1027.8 mb - 0.00 in0.0 mm 0.00 in0.0 mm
11:40 AM 46.9°F8.3°C 45.5°F7.5°C 95% 1.1 mph NE1.8 kmh NE 3.5 mph5.6 kmh 30.34 in1027.4 mb - 0.00 in0.0 mm 0.00 in0.0 mm
11:50 AM 47.8°F8.8°C 46.4°F8.0°C 95% 1.1 mph NE1.8 kmh NE 2.3 mph3.7 kmh 30.34 in1027.4 mb - 0.00 in0.0 mm 0.00 in0.0 mm
12:00 PM 48.6°F9.2°C 46.9°F8.3°C 94% 4.6 mph NE7.4 kmh NE 8.1 mph13.0 kmh 30.34 in1027.4 mb - 0.00 in0.0 mm 0.00 in0.0 mm
12:10 PM 49.8°F9.9°C 47.8°F8.8°C 93% 5.8 mph ENE9.3 kmh ENE 8.1 mph13.0 kmh 30.34 in1027.4 mb - 0.00 in0.0 mm 0.00 in0.0 mm
12:20 PM 50.2°F10.1°C 47.7°F8.7°C 91% 5.8 mph ENE9.3 kmh ENE 6.9 mph11.1 kmh 30.34 in1027.4 mb - 0.00 in0.0 mm 0.00 in0.0 mm
12:30 PM 51.5°F10.8°C 48.1°F8.9°C 88% 5.8 mph ENE9.3 kmh ENE 9.2 mph14.8 kmh 30.34 in1027.4 mb - 0.00 in0.0 mm 0.00 in0.0 mm
12:40 PM 52.2°F11.2°C 47.5°F8.6°C 84% 8.1 mph ENE13.0 kmh ENE 10.4 mph16.7 kmh 30.34 in1027.4 mb - 0.00 in0.0 mm 0.00 in0.0 mm
12:50 PM 52.6°F11.4°C 46.9°F8.3°C 81% 5.8 mph ENE9.3 kmh ENE 10.4 mph16.7 kmh 30.33 in1027.1 mb - 0.00 in0.0 mm 0.00 in0.0 mm
01:00 PM 52.7°F11.5°C 46.0°F7.8°C 78% 9.2 mph ENE14.8 kmh ENE 12.7 mph20.4 kmh 30.33 in1027.1 mb - 0.00 in0.0 mm 0.00 in0.0 mm
01:10 PM 53.2°F11.8°C 46.5°F8.1°C 78% 8.1 mph NE13.0 kmh NE 11.5 mph18.5 kmh 30.33 in1027.1 mb - 0.00 in0.0 mm 0.00 in0.0 mm
01:20 PM 53.3°F11.8°C 45.9°F7.7°C 76% 10.4 mph NE16.7 kmh NE 16.1 mph25.9 kmh 30.33 in1027.1 mb - 0.00 in0.0 mm 0.00 in0.0 mm
01:30 PM 53.6°F12.0°C 46.2°F7.9°C 76% 10.4 mph ENE16.7 kmh ENE 12.7 mph20.4 kmh 30.34 in1027.4 mb - 0.00 in0.0 mm 0.00 in0.0 mm
01:40 PM 53.7°F12.1°C 46.0°F7.8°C 75% 11.5 mph NE18.5 kmh NE 16.1 mph25.9 kmh 30.34 in1027.4 mb - 0.00 in0.0 mm 0.00 in0.0 mm
01:50 PM 53.6°F12.0°C 45.5°F7.5°C 74% 9.2 mph ENE14.8 kmh ENE 11.5 mph18.5 kmh 30.34 in1027.4 mb - 0.00 in0.0 mm 0.00 in0.0 mm
02:00 PM 53.5°F11.9°C 45.8°F7.7°C 75% 8.1 mph ENE13.0 kmh ENE 11.5 mph18.5 kmh 30.34 in1027.4 mb - 0.00 in0.0 mm 0.00 in0.0 mm
02:10 PM 53.3°F11.8°C 45.6°F7.6°C 75% 8.1 mph NE13.0 kmh NE 12.7 mph20.4 kmh 30.33 in1027.1 mb - 0.00 in0.0 mm 0.00 in0.0 mm
02:20 PM 53.3°F11.8°C 45.2°F7.3°C 74% 11.5 mph NE18.5 kmh NE 15.0 mph24.1 kmh 30.33 in1027.1 mb - 0.00 in0.0 mm 0.00 in0.0 mm
02:30 PM 53.0°F11.7°C 44.9°F7.2°C 74% 10.4 mph ENE16.7 kmh ENE 15.0 mph24.1 kmh 30.33 in1027.1 mb - 0.00 in0.0 mm 0.00 in0.0 mm
02:40 PM 52.8°F11.6°C 44.7°F7.1°C 74% 8.1 mph ENE13.0 kmh ENE 16.1 mph25.9 kmh 30.33 in1027.1 mb - 0.00 in0.0 mm 0.00 in0.0 mm
02:50 PM 52.9°F11.6°C 44.5°F6.9°C 73% 9.2 mph ENE14.8 kmh ENE 11.5 mph18.5 kmh 30.33 in1027.1 mb - 0.00 in0.0 mm 0.00 in0.0 mm
03:00 PM 53.0°F11.7°C 44.6°F7.0°C 73% 8.1 mph ENE13.0 kmh ENE 11.5 mph18.5 kmh 30.32 in1026.8 mb - 0.00 in0.0 mm 0.00 in0.0 mm
03:10 PM 53.2°F11.8°C 45.1°F7.3°C 74% 11.5 mph NE18.5 kmh NE 15.0 mph24.1 kmh 30.33 in1027.1 mb - 0.00 in0.0 mm 0.00 in0.0 mm
03:20 PM 53.1°F11.7°C 44.3°F6.8°C 72% 12.7 mph NE20.4 kmh NE 18.4 mph29.6 kmh 30.33 in1027.1 mb - 0.00 in0.0 mm 0.00 in0.0 mm
03:30 PM 53.2°F11.8°C 44.0°F6.7°C 71% 11.5 mph NE18.5 kmh NE 12.7 mph20.4 kmh 30.33 in1027.1 mb - 0.00 in0.0 mm 0.00 in0.0 mm
03:40 PM 53.2°F11.8°C 44.4°F6.9°C 72% 9.2 mph NE14.8 kmh NE 11.5 mph18.5 kmh 30.33 in1027.1 mb - 0.00 in0.0 mm 0.00 in0.0 mm
03:50 PM 52.9°F11.6°C 43.7°F6.5°C 71% 11.5 mph NE18.5 kmh NE 16.1 mph25.9 kmh 30.33 in1027.1 mb - 0.00 in0.0 mm 0.00 in0.0 mm
04:00 PM 52.8°F11.6°C 43.6°F6.4°C 71% 9.2 mph NE14.8 kmh NE 11.5 mph18.5 kmh 30.33 in1027.1 mb - 0.00 in0.0 mm 0.00 in0.0 mm
04:10 PM 52.4°F11.3°C 43.3°F6.3°C 71% 8.1 mph ENE13.0 kmh ENE 10.4 mph16.7 kmh 30.33 in1027.1 mb - 0.00 in0.0 mm 0.00 in0.0 mm
04:20 PM 52.4°F11.3°C 43.3°F6.3°C 71% 8.1 mph ENE13.0 kmh ENE 10.4 mph16.7 kmh 30.33 in1027.1 mb - 0.00 in0.0 mm 0.00 in0.0 mm
04:30 PM 52.4°F11.3°C 43.6°F6.4°C 72% 6.9 mph ENE11.1 kmh ENE 9.2 mph14.8 kmh 30.34 in1027.4 mb - 0.00 in0.0 mm 0.00 in0.0 mm
04:40 PM 52.3°F11.3°C 43.9°F6.6°C 73% 4.6 mph E7.4 kmh E 6.9 mph11.1 kmh 30.33 in1027.1 mb - 0.00 in0.0 mm 0.00 in0.0 mm
04:50 PM 52.3°F11.3°C 43.5°F6.4°C 72% 2.3 mph E3.7 kmh E 4.6 mph7.4 kmh 30.33 in1027.1 mb - 0.00 in0.0 mm 0.00 in0.0 mm
05:00 PM 52.3°F11.3°C 43.5°F6.4°C 72% 3.5 mph E5.6 kmh E 6.9 mph11.1 kmh 30.33 in1027.1 mb - 0.00 in0.0 mm 0.00 in0.0 mm
05:10 PM 52.2°F11.2°C 43.4°F6.3°C 72% 3.5 mph ENE5.6 kmh ENE 5.8 mph9.3 kmh 30.33 in1027.1 mb - 0.00 in0.0 mm 0.00 in0.0 mm
05:20 PM 52.2°F11.2°C 43.4°F6.3°C 72% 4.6 mph E7.4 kmh E 5.8 mph9.3 kmh 30.34 in1027.4 mb - 0.00 in0.0 mm 0.00 in0.0 mm
05:30 PM 52.2°F11.2°C 43.4°F6.3°C 72% 4.6 mph ENE7.4 kmh ENE 5.8 mph9.3 kmh 30.34 in1027.4 mb - 0.00 in0.0 mm 0.00 in0.0 mm
05:40 PM 52.1°F11.2°C 43.3°F6.3°C 72% 3.5 mph ENE5.6 kmh ENE 4.6 mph7.4 kmh 30.35 in1027.8 mb - 0.00 in0.0 mm 0.00 in0.0 mm
05:50 PM 51.9°F11.1°C 43.2°F6.2°C 72% 5.8 mph ENE9.3 kmh ENE 8.1 mph13.0 kmh 30.35 in1027.8 mb - 0.00 in0.0 mm 0.00 in0.0 mm
06:00 PM 51.6°F10.9°C 42.9°F6.1°C 72% 4.6 mph NE7.4 kmh NE 5.8 mph9.3 kmh 30.35 in1027.8 mb - 0.00 in0.0 mm 0.00 in0.0 mm
06:10 PM 51.1°F10.6°C 43.1°F6.2°C 74% 5.8 mph NE9.3 kmh NE 5.8 mph9.3 kmh 30.36 in1028.1 mb - 0.00 in0.0 mm 0.00 in0.0 mm
06:20 PM 50.7°F10.4°C 42.7°F5.9°C 74% 2.3 mph NE3.7 kmh NE 3.5 mph5.6 kmh 30.36 in1028.1 mb - 0.00 in0.0 mm 0.00 in0.0 mm
06:30 PM 50.4°F10.2°C 42.8°F6.0°C 75% 2.3 mph NE3.7 kmh NE 3.5 mph5.6 kmh 30.36 in1028.1 mb - 0.00 in0.0 mm 0.00 in0.0 mm
06:40 PM 50.0°F10.0°C 42.7°F5.9°C 76% 4.6 mph NE7.4 kmh NE 6.9 mph11.1 kmh 30.37 in1028.4 mb - 0.00 in0.0 mm 0.00 in0.0 mm
06:50 PM 49.5°F9.7°C 42.6°F5.9°C 77% 4.6 mph NE7.4 kmh NE 5.8 mph9.3 kmh 30.38 in1028.8 mb - 0.00 in0.0 mm 0.00 in0.0 mm
07:00 PM 49.0°F9.4°C 42.4°F5.8°C 78% 3.5 mph NE5.6 kmh NE 4.6 mph7.4 kmh 30.38 in1028.8 mb - 0.00 in0.0 mm 0.00 in0.0 mm
07:10 PM 48.7°F9.3°C 42.1°F5.6°C 78% 3.5 mph NE5.6 kmh NE 4.6 mph7.4 kmh 30.38 in1028.8 mb - 0.00 in0.0 mm 0.00 in0.0 mm
07:20 PM 47.9°F8.8°C 41.7°F5.4°C 79% 4.6 mph NE7.4 kmh NE 5.8 mph9.3 kmh 30.39 in1029.1 mb - 0.00 in0.0 mm 0.00 in0.0 mm
07:30 PM 47.5°F8.6°C 41.6°F5.3°C 80% 4.6 mph NE7.4 kmh NE 6.9 mph11.1 kmh 30.39 in1029.1 mb - 0.00 in0.0 mm 0.00 in0.0 mm
07:40 PM 47.1°F8.4°C 41.3°F5.2°C 80% 4.6 mph NE7.4 kmh NE 6.9 mph11.1 kmh 30.40 in1029.5 mb - 0.00 in0.0 mm 0.00 in0.0 mm
07:50 PM 46.5°F8.1°C 41.0°F5.0°C 81% 4.6 mph NE7.4 kmh NE 5.8 mph9.3 kmh 30.40 in1029.5 mb - 0.00 in0.0 mm 0.00 in0.0 mm
08:00 PM 46.2°F7.9°C 41.0°F5.0°C 82% 1.1 mph NE1.8 kmh NE 2.3 mph3.7 kmh 30.40 in1029.5 mb - 0.00 in0.0 mm 0.00 in0.0 mm
08:10 PM 45.8°F7.7°C 40.6°F4.8°C 82% 4.6 mph NE7.4 kmh NE 5.8 mph9.3 kmh 30.41 in1029.8 mb - 0.00 in0.0 mm 0.00 in0.0 mm
08:20 PM 45.3°F7.4°C 40.2°F4.6°C 82% 1.1 mph NE1.8 kmh NE 2.3 mph3.7 kmh 30.41 in1029.8 mb - 0.00 in0.0 mm 0.00 in0.0 mm
08:30 PM 44.9°F7.2°C 40.1°F4.5°C 83% 3.5 mph NE5.6 kmh NE 4.6 mph7.4 kmh 30.41 in1029.8 mb - 0.00 in0.0 mm 0.00 in0.0 mm
08:40 PM 44.5°F6.9°C 39.9°F4.4°C 84% 4.6 mph NE7.4 kmh NE 6.9 mph11.1 kmh 30.41 in1029.8 mb - 0.00 in0.0 mm 0.00 in0.0 mm
08:50 PM 43.9°F6.6°C 39.7°F4.3°C 85% 3.5 mph NE5.6 kmh NE 4.6 mph7.4 kmh 30.41 in1029.8 mb - 0.00 in0.0 mm 0.00 in0.0 mm
09:00 PM 43.8°F6.6°C 39.6°F4.2°C 85% Calm Calm 1.1 mph1.8 kmh 30.41 in1029.8 mb - 0.00 in0.0 mm 0.00 in0.0 mm
09:10 PM 43.5°F6.4°C 39.3°F4.1°C 85% 4.6 mph NE7.4 kmh NE 5.8 mph9.3 kmh 30.41 in1029.8 mb - 0.00 in0.0 mm 0.00 in0.0 mm
09:20 PM 43.3°F6.3°C 39.4°F4.1°C 86% 1.1 mph NE1.8 kmh NE 1.1 mph1.8 kmh 30.41 in1029.8 mb - 0.00 in0.0 mm 0.00 in0.0 mm
09:30 PM 43.1°F6.2°C 39.2°F4.0°C 86% Calm Calm 1.1 mph1.8 kmh 30.42 in1030.1 mb - 0.00 in0.0 mm 0.00 in0.0 mm
09:40 PM 43.0°F6.1°C 39.4°F4.1°C 87% Calm Calm 1.1 mph1.8 kmh 30.42 in1030.1 mb - 0.00 in0.0 mm 0.00 in0.0 mm
09:50 PM 43.2°F6.2°C 39.6°F4.2°C 87% 1.1 mph NE1.8 kmh NE 1.1 mph1.8 kmh 30.42 in1030.1 mb - 0.00 in0.0 mm 0.00 in0.0 mm
10:00 PM 43.2°F6.2°C 39.6°F4.2°C 87% Calm Calm -- 30.42 in1030.1 mb - 0.00 in0.0 mm 0.00 in0.0 mm
10:10 PM 43.0°F6.1°C 39.4°F4.1°C 87% Calm Calm 1.1 mph1.8 kmh 30.43 in1030.5 mb - 0.00 in0.0 mm 0.00 in0.0 mm
10:20 PM 42.7°F5.9°C 38.8°F3.8°C 86% Calm Calm 1.1 mph1.8 kmh 30.43 in1030.5 mb - 0.00 in0.0 mm 0.00 in0.0 mm
10:30 PM 42.1°F5.6°C 38.3°F3.5°C 86% Calm Calm -- 30.43 in1030.5 mb - 0.00 in0.0 mm 0.00 in0.0 mm
10:40 PM 41.6°F5.3°C 38.0°F3.3°C 87% 1.1 mph NE1.8 kmh NE 2.3 mph3.7 kmh 30.44 in1030.8 mb - 0.00 in0.0 mm 0.00 in0.0 mm
10:50 PM 41.2°F5.1°C 37.6°F3.1°C 87% 1.1 mph NE1.8 kmh NE 3.5 mph5.6 kmh 30.44 in1030.8 mb - 0.00 in0.0 mm 0.00 in0.0 mm
11:00 PM 40.9°F4.9°C 37.3°F2.9°C 87% 1.1 mph NE1.8 kmh NE 2.3 mph3.7 kmh 30.45 in1031.2 mb - 0.00 in0.0 mm 0.00 in0.0 mm
11:10 PM 40.6°F4.8°C 37.3°F2.9°C 88% Calm Calm -- 30.45 in1031.2 mb - 0.00 in0.0 mm 0.00 in0.0 mm
11:20 PM 40.2°F4.6°C 37.0°F2.8°C 88% Calm Calm -- 30.45 in1031.2 mb - 0.00 in0.0 mm 0.00 in0.0 mm
11:30 PM 40.1°F4.5°C 37.1°F2.8°C 89% Calm Calm -- 30.44 in1030.8 mb - 0.00 in0.0 mm 0.00 in0.0 mm
11:40 PM 39.8°F4.3°C 36.8°F2.7°C 89% Calm Calm 1.1 mph1.8 kmh 30.44 in1030.8 mb - 0.00 in0.0 mm 0.00 in0.0 mm
11:50 PM 39.7°F4.3°C 36.7°F2.6°C 89% 1.1 mph NE1.8 kmh NE 2.3 mph3.7 kmh 30.44 in1030.8 mb - 0.00 in0.0 mm 0.00 in0.0 mm